Latest Coastal Weather Observations for Low Head

IDV60701

Issued at 7:51 pm EST Tuesday 24 May 2016 (issued every 10 minutes, with the page automatically refreshed every 10 minutes)

About coastal observations | Map of coastal stations | Coastal observations for VIC | Marine services | Other Formats
Station Details ID: 091293 Name: LOW HEAD Lat: -41.05 Lon: 146.79 Height: 3.0 m
Data from the previous 72 hours. | See also: Recent months at Low Head
Date/Time
EST
Temp

°C
Wind Pressure Rain
since 9am
mm
Weather Cloud Vis
km
Sea
Height
m
Swell
Dir
 
Speed
knots
Gust
knots
hPa Trend Height
m
Period
s
Dir
24/07:30pm 9.3 ESE 5 6 1015.9 - 0.0 - - - - - - -
24/07:00pm 9.9 SSE 6 8 1015.7 - 0.0 - - - - - - -
24/06:30pm 11.1 SW 7 8 1015.6 - 0.0 - - - - - - -
24/06:00pm 11.3 SSW 6 6 1015.3 - 0.0 - - - - - - -
24/05:30pm 10.8 S 7 8 1015.0 - 0.0 - - - - - - -
24/05:00pm 11.4 SSE 6 9 1014.9 - 0.0 - - - - - - -
24/04:30pm 12.8 SE 6 11 1014.7 - 0.0 - - - - - - -
24/04:00pm 13.5 SW 13 17 1014.4 - 0.0 - - - - - - -
24/03:30pm 14.2 W 14 17 1014.0 - 0.0 - - - - - - -
24/03:00pm 14.2 W 15 17 1013.8 - 0.0 - - - - - - -
24/02:30pm 14.2 W 15 17 1013.7 - 0.0 - - - - - - -
24/02:00pm 13.8 W 14 17 1013.8 - 0.0 - - - - - - -
24/01:30pm 14.1 W 12 14 1013.9 - 0.0 - - - - - - -
24/01:00pm 14.0 W 13 16 1014.0 - 0.0 - - - - - - -
24/12:30pm 13.2 W 16 19 1014.2 - 0.0 - - - - - - -
24/12:00pm 13.0 W 16 19 1014.1 - 0.0 - - - - - - -
24/11:30am 12.6 W 16 19 1014.3 - 0.0 - - - - - - -
24/11:00am 12.6 W 16 19 1014.8 - 0.0 - - - - - - -
24/10:30am 12.1 WSW 17 20 1014.8 - 0.0 - - - - - - -
24/10:00am 11.7 WSW 17 19 1014.7 - 0.0 - - - - - - -
24/09:30am 11.2 WSW 16 18 1014.5 - 0.0 - - - - - - -
24/09:00am 10.9 WSW 18 20 1014.2 - 0.0 - - - - - - -
24/08:30am 10.4 WSW 18 19 1014.0 - 0.0 - - - - - - -
24/08:00am 10.4 WSW 18 20 1013.8 - 0.0 - - - - - - -
24/07:30am 10.1 WSW 17 19 1013.4 - 0.0 - - - - - - -
24/07:00am 9.7 WSW 16 18 1013.1 - 0.0 - - - - - - -
24/06:30am 9.8 WSW 15 17 1012.8 - 0.0 - - - - - - -
24/06:00am 10.1 WSW 14 16 1012.9 - 0.0 - - - - - - -
24/05:30am 10.4 W 13 15 1012.7 - 0.0 - - - - - - -
24/05:00am 10.3 WSW 10 14 1012.6 - 0.0 - - - - - - -
24/04:30am 9.9 SW 12 16 1012.5 - 0.0 - - - - - - -
24/04:00am 10.6 WSW 11 14 1012.2 - 0.0 - - - - - - -
24/03:30am 11.2 W 15 17 1012.2 - 0.0 - - - - - - -
24/03:00am 11.3 WSW 14 16 1012.2 - 0.0 - - - - - - -
24/02:30am 11.3 WSW 14 19 1012.4 - 0.0 - - - - - - -
24/02:00am 11.8 WSW 17 22 1012.4 - 0.0 - - - - - - -
24/01:30am 11.8 WSW 18 21 1012.2 - 0.0 - - - - - - -
24/01:00am 11.3 W 17 21 1012.2 - 0.0 - - - - - - -
24/12:30am 11.4 W 17 21 1012.1 - 0.0 - - - - - - -
24/12:00am 11.1 WSW 11 16 1012.4 - 0.0 - - - - - - -
 
Date/Time
EST
Temp

°C
Wind Pressure Rain
since 9am
mm
Weather Cloud Vis
km
Sea
Height
m
Swell
Dir
 
Speed
knots
Gust
knots
hPa Trend Height
m
Period
s
Dir
23/11:30pm 11.0 SW 9 11 1012.5 - 0.0 - - - - - - -
23/11:00pm 10.8 SW 13 21 1012.9 - 0.0 - - - - - - -
23/10:30pm 11.5 WSW 14 18 1012.8 - 0.0 - - - - - - -
23/10:00pm 11.4 WSW 18 23 1012.7 - 0.0 - - - - - - -
23/09:30pm 11.4 W 22 28 1012.4 - 0.0 - - - - - - -
23/09:00pm 11.2 WSW 21 26 1012.2 - 0.0 - - - - - - -
23/08:30pm 11.3 WSW 23 28 1011.9 - 0.0 - - - - - - -
23/08:00pm 11.1 WSW 24 28 1011.5 - 0.0 - - - - - - -
23/07:30pm 11.2 WSW 26 31 1011.3 - 0.0 - - - - - - -
23/07:00pm 10.9 WSW 28 34 1010.8 - 0.0 - - - - - - -
23/06:30pm 11.1 WSW 28 33 1010.4 - 0.0 - - - - - - -
23/06:00pm 11.0 WSW 25 30 1010.2 - 0.0 - - - - - - -
23/05:30pm 11.2 WSW 27 35 1009.5 - 0.0 - - - - - - -
23/05:00pm 11.7 WSW 28 33 1009.3 - 0.0 - - - - - - -
23/04:30pm 12.0 WSW 31 37 1009.0 - 0.0 - - - - - - -
23/04:00pm 11.9 W 31 40 1008.5 - 0.0 - - - - - - -
23/03:44pm 12.2 WSW 28 38 1008.1 - 0.0 - - - - - - -
23/03:30pm 12.7 W 29 35 1008.1 - 0.0 - - - - - - -
23/03:00pm 12.4 WSW 33 40 1007.8 - 0.0 - - - - - - -
23/02:30pm 12.8 W 31 39 1007.5 - 0.0 - - - - - - -
23/02:18pm 12.8 W 30 40 1007.2 - 0.0 - - - - - - -
23/02:00pm 13.2 W 32 37 1006.8 - 0.0 - - - - - - -
23/01:30pm 13.1 W 32 42 1006.5 - 0.0 - - - - - - -
23/01:29pm 13.3 W 32 42 1006.5 - 0.0 - - - - - - -
23/01:00pm 13.2 W 29 34 1006.1 - 0.0 - - - - - - -
23/12:30pm 13.2 W 31 36 1005.9 - 0.0 - - - - - - -
23/12:00pm 13.5 W 29 34 1005.8 - 0.0 - - - - - - -
23/11:30am 13.6 W 27 31 1005.8 - 0.0 - - - - - - -
23/11:00am 13.3 W 29 36 1005.7 - 0.0 - - - - - - -
23/10:30am 13.3 W 29 35 1005.5 - 0.0 - - - - - - -
23/10:00am 13.6 WNW 28 33 1005.1 - 0.0 - - - - - - -
23/09:30am 13.5 WNW 26 31 1004.8 - 0.0 - - - - - - -
23/09:00am 13.8 WNW 21 26 1004.5 - 6.2 - - - - - - -
23/08:30am 13.4 WNW 21 29 1004.6 - 6.2 - - - - - - -
23/08:00am 13.1 NW 26 39 1005.1 - 6.2 - - - - - - -
23/07:57am 13.5 NW 24 39 1004.9 - 6.0 - - - - - - -
23/07:30am 13.8 NW 21 25 1004.9 - 6.0 - - - - - - -
23/07:00am 13.9 NW 19 24 1005.3 - 6.0 - - - - - - -
23/06:30am 13.4 NW 17 21 1005.4 - 6.0 - - - - - - -
23/06:00am 13.0 WNW 13 15 1005.4 - 6.0 Recent precip. - - - - - -
23/05:30am 13.2 WNW 18 22 1005.4 - 5.8 - - - - - - -
23/05:00am 13.6 W 18 21 1005.6 - 5.6 - - - - - - -
23/04:30am 13.4 W 21 28 1005.0 - 5.6 - - - - - - -
23/04:00am 13.7 W 28 35 1005.0 - 5.0 - - - - - - -
23/03:36am 14.6 WNW 30 42 1004.7 - 4.4 - - - - - - -
23/03:30am 14.6 WNW 25 32 1004.7 - 4.4 - - - - - - -
23/03:10am 15.4 NNW 21 27 1004.6 - 4.4 - - - - - - -
23/03:00am 16.1 N 20 25 1004.6 - 4.4 Rain - - - - - -
23/02:30am 16.1 NNE 15 21 1005.7 - 4.0 - - - - - - -
23/02:29am 16.1 NNE 15 21 1005.6 - 4.0 - - - - - - -
23/02:00am 14.4 E 10 11 1006.4 - 3.4 - - - - - - -
23/01:30am 14.2 SE 6 8 1007.2 - 2.2 - - - - - - -
23/01:00am 14.5 E 10 11 1007.5 - 1.4 - - - - - - -
23/12:30am 14.4 SE 4 8 1008.5 - 0.8 - - - - - - -
23/12:00am 15.3 ESE 6 9 1008.4 - 0.0 - - - - - - -
 
Date/Time
EST
Temp

°C
Wind Pressure Rain
since 9am
mm
Weather Cloud Vis
km
Sea
Height
m
Swell
Dir
 
Speed
knots
Gust
knots
hPa Trend Height
m
Period
s
Dir
22/11:30pm 14.7 E 8 11 1008.6 - 0.0 - - - - - - -
22/11:00pm 14.5 E 7 9 1009.1 - 0.0 - - - - - - -
22/10:30pm 14.4 ESE 8 11 1009.6 - 0.0 - - - - - - -
22/10:00pm 13.9 ESE 7 10 1010.2 - 0.0 - - - - - - -
22/09:30pm 13.4 SE 7 8 1010.6 - 0.0 - - - - - - -
22/09:00pm 13.9 SE 6 8 1010.9 - 0.0 - - - - - - -
22/08:30pm 14.9 ENE 12 15 1011.1 - 0.0 - - - - - - -
22/08:00pm 13.9 E 6 9 1011.4 - 0.0 - - - - - - -
22/07:30pm 13.6 ESE 7 9 1011.7 - 0.0 - - - - - - -
22/07:00pm 13.6 ESE 5 7 1012.1 - 0.0 - - - - - - -
22/06:30pm 14.0 E 9 11 1012.1 - 0.0 - - - - - - -
22/06:00pm 14.5 E 8 12 1012.7 - 0.0 - - - - - - -
22/05:30pm 15.1 ENE 13 15 1012.9 - 0.0 - - - - - - -
22/05:00pm 15.4 ENE 13 18 1012.9 - 0.0 - - - - - - -
22/04:30pm 15.6 NE 12 14 1013.4 - 0.0 - - - - - - -
22/04:00pm 16.0 NE 9 11 1014.1 - 0.0 - - - - - - -
22/03:30pm 16.0 NE 9 11 1014.2 - 0.0 - - - - - - -
22/03:00pm 16.0 ENE 14 16 1014.3 - 0.0 - - - - - - -
22/02:30pm 16.1 ENE 17 19 1014.2 - 0.0 - - - - - - -
22/02:00pm 16.1 ENE 14 16 1014.5 - 0.0 - - - - - - -
22/01:30pm 16.1 ENE 11 13 1015.2 - 0.0 - - - - - - -
22/01:00pm 15.5 NE 9 10 1015.5 - 0.0 - - - - - - -
22/12:30pm 15.2 NE 12 14 1016.0 - 0.0 - - - - - - -
22/12:00pm 15.2 NE 9 11 1016.6 - 0.0 - - - - - - -
22/11:30am 15.1 ENE 12 15 1017.3 - 0.0 - - - - - - -
22/11:00am 15.1 ENE 11 14 1017.7 - 0.0 - - - - - - -
22/10:30am 14.6 E 8 11 1018.3 - 0.0 - - - - - - -
22/10:00am 13.6 ESE 6 9 1018.4 - 0.0 - - - - - - -
22/09:30am 11.8 SSE 6 8 1018.8 - 0.0 - - - - - - -
22/09:00am 11.5 SSE 7 9 1019.1 - 0.0 - - - - - - -
22/08:30am 11.0 SSE 7 8 1019.0 - 0.0 - - - - - - -
22/08:00am 9.9 SSE 6 7 1019.3 - 0.0 - - - - - - -
22/07:30am 9.8 SSE 8 9 1019.3 - 0.0 - - - - - - -
22/07:00am 9.9 SSE 9 10 1019.9 - 0.0 - - - - - - -
22/06:30am 10.0 SSE 8 9 1019.9 - 0.0 - - - - - - -
22/06:00am 10.1 SSE 8 10 1019.7 - 0.0 - - - - - - -
22/05:30am 10.2 SSE 8 10 1020.2 - 0.0 - - - - - - -
22/05:00am 10.4 SSE 8 9 1020.2 - 0.0 - - - - - - -
22/04:30am 10.6 SSE 7 8 1020.3 - 0.0 - - - - - - -
22/04:00am 10.8 SSE 7 8 1020.3 - 0.0 - - - - - - -
22/03:30am 11.1 SSE 8 9 1020.3 - 0.0 - - - - - - -
22/03:00am 10.9 SSE 7 7 1020.9 - 0.0 - - - - - - -
22/02:30am 11.4 SE 6 8 1021.5 - 0.0 - - - - - - -
22/02:00am 11.5 SSE 7 8 1021.6 - 0.0 - - - - - - -
22/01:30am 11.5 SSE 7 8 1021.7 - 0.0 - - - - - - -
22/01:00am 11.6 SSE 6 7 1021.9 - 0.0 - - - - - - -
22/12:30am 11.4 SSE 6 8 1021.8 - 0.0 - - - - - - -
22/12:00am 11.1 SE 6 8 1021.7 - 0.0 - - - - - - -
 
Date/Time
EST
Temp

°C
Wind Pressure Rain
since 9am
mm
Weather Cloud Vis
km
Sea
Height
m
Swell
Dir
 
Speed
knots
Gust
knots
hPa Trend Height
m
Period
s
Dir
21/11:30pm 11.4 SE 6 7 1022.1 - 0.0 - - - - - - -
21/11:00pm 11.5 SE 6 7 1022.3 - 0.0 - - - - - - -
21/10:30pm 11.4 ESE 8 10 1022.3 - 0.0 - - - - - - -
21/10:00pm 11.4 SE 6 8 1022.7 - 0.0 - - - - - - -
21/09:30pm 12.2 ESE 5 7 1022.7 - 0.0 - - - - - - -
21/09:00pm 11.9 SE 5 7 1022.8 - 0.0 - - - - - - -
21/08:30pm 11.7 SE 5 7 1022.5 - 0.0 - - - - - - -
21/08:00pm 12.4 E 7 8 1022.5 - 0.0 - - - - - - -

Other Formats:

Comma delimited format used in spreadsheet applications
http://www.bom.gov.au/fwo/IDV60701/IDV60701.95964.axf

JavaScript Object Notation format (JSON) in row-major order
http://www.bom.gov.au/fwo/IDV60701/IDV60701.95964.json